sensor_id;sensor_type;location;lat;lon;timestamp;P1;durP1;ratioP1;P2;durP2;ratioP2
71730;SDS011;65964;43.496;3.710;2024-01-25T00:01:19;2.78;;;1.83;;
71730;SDS011;65964;43.496;3.710;2024-01-25T00:03:45;2.00;;;1.70;;
71730;SDS011;65964;43.496;3.710;2024-01-25T00:06:11;2.42;;;1.63;;
71730;SDS011;65964;43.496;3.710;2024-01-25T00:08:37;2.00;;;1.65;;
71730;SDS011;65964;43.496;3.710;2024-01-25T00:11:04;1.90;;;1.42;;
71730;SDS011;65964;43.496;3.710;2024-01-25T00:13:30;2.65;;;1.85;;
71730;SDS011;65964;43.496;3.710;2024-01-25T00:15:56;2.33;;;1.73;;
71730;SDS011;65964;43.496;3.710;2024-01-25T00:18:22;4.18;;;1.75;;
71730;SDS011;65964;43.496;3.710;2024-01-25T00:20:48;3.13;;;1.90;;
71730;SDS011;65964;43.496;3.710;2024-01-25T00:23:14;2.30;;;1.70;;
71730;SDS011;65964;43.496;3.710;2024-01-25T00:25:40;3.60;;;2.10;;
71730;SDS011;65964;43.496;3.710;2024-01-25T00:28:06;3.20;;;1.90;;
71730;SDS011;65964;43.496;3.710;2024-01-25T00:30:32;2.33;;;1.65;;
71730;SDS011;65964;43.496;3.710;2024-01-25T00:32:58;2.47;;;1.70;;
71730;SDS011;65964;43.496;3.710;2024-01-25T00:35:25;4.00;;;1.70;;
71730;SDS011;65964;43.496;3.710;2024-01-25T00:37:52;1.95;;;1.60;;
71730;SDS011;65964;43.496;3.710;2024-01-25T00:40:18;2.03;;;1.42;;
71730;SDS011;65964;43.496;3.710;2024-01-25T00:42:44;1.95;;;1.60;;
71730;SDS011;65964;43.496;3.710;2024-01-25T00:45:18;3.15;;;1.73;;
71730;SDS011;65964;43.496;3.710;2024-01-25T00:47:44;2.47;;;1.73;;
71730;SDS011;65964;43.496;3.710;2024-01-25T00:50:10;2.75;;;1.77;;
71730;SDS011;65964;43.496;3.710;2024-01-25T00:52:36;2.85;;;1.67;;
71730;SDS011;65964;43.496;3.710;2024-01-25T00:55:03;2.08;;;1.48;;
71730;SDS011;65964;43.496;3.710;2024-01-25T00:57:29;1.92;;;1.58;;
71730;SDS011;65964;43.496;3.710;2024-01-25T00:59:55;2.58;;;1.50;;
71730;SDS011;65964;43.496;3.710;2024-01-25T01:02:21;1.95;;;1.50;;
71730;SDS011;65964;43.496;3.710;2024-01-25T01:04:48;2.58;;;1.50;;
71730;SDS011;65964;43.496;3.710;2024-01-25T01:07:14;2.78;;;1.45;;
71730;SDS011;65964;43.496;3.710;2024-01-25T01:09:40;1.58;;;1.42;;
71730;SDS011;65964;43.496;3.710;2024-01-25T01:12:06;2.08;;;1.60;;
71730;SDS011;65964;43.496;3.710;2024-01-25T01:14:32;2.05;;;1.50;;
71730;SDS011;65964;43.496;3.710;2024-01-25T01:16:59;1.77;;;1.48;;
71730;SDS011;65964;43.496;3.710;2024-01-25T01:19:25;2.42;;;1.67;;
71730;SDS011;65964;43.496;3.710;2024-01-25T01:21:51;1.92;;;1.60;;
71730;SDS011;65964;43.496;3.710;2024-01-25T01:24:17;2.75;;;1.55;;
71730;SDS011;65964;43.496;3.710;2024-01-25T01:26:43;3.08;;;1.75;;
71730;SDS011;65964;43.496;3.710;2024-01-25T01:29:09;2.40;;;1.75;;
71730;SDS011;65964;43.496;3.710;2024-01-25T01:31:35;2.72;;;1.60;;
71730;SDS011;65964;43.496;3.710;2024-01-25T01:34:01;3.58;;;1.63;;
71730;SDS011;65964;43.496;3.710;2024-01-25T01:36:27;3.38;;;1.75;;
71730;SDS011;65964;43.496;3.710;2024-01-25T01:38:54;2.10;;;1.50;;
71730;SDS011;65964;43.496;3.710;2024-01-25T01:41:20;2.25;;;1.60;;
71730;SDS011;65964;43.496;3.710;2024-01-25T01:43:46;2.42;;;1.70;;
71730;SDS011;65964;43.496;3.710;2024-01-25T01:46:17;2.40;;;1.60;;
71730;SDS011;65964;43.496;3.710;2024-01-25T01:48:46;2.42;;;1.77;;
71730;SDS011;65964;43.496;3.710;2024-01-25T01:51:12;2.45;;;1.65;;
71730;SDS011;65964;43.496;3.710;2024-01-25T01:53:38;2.25;;;1.45;;
71730;SDS011;65964;43.496;3.710;2024-01-25T01:56:05;1.83;;;1.65;;
71730;SDS011;65964;43.496;3.710;2024-01-25T01:58:32;2.55;;;1.60;;
71730;SDS011;65964;43.496;3.710;2024-01-25T02:00:59;2.42;;;1.63;;
71730;SDS011;65964;43.496;3.710;2024-01-25T02:03:25;2.60;;;1.52;;
71730;SDS011;65964;43.496;3.710;2024-01-25T02:05:51;2.83;;;1.63;;
71730;SDS011;65964;43.496;3.710;2024-01-25T02:08:17;2.47;;;1.60;;
71730;SDS011;65964;43.496;3.710;2024-01-25T02:10:43;2.15;;;1.45;;
71730;SDS011;65964;43.496;3.710;2024-01-25T02:13:09;1.55;;;1.40;;
71730;SDS011;65964;43.496;3.710;2024-01-25T02:15:35;2.28;;;1.58;;
71730;SDS011;65964;43.496;3.710;2024-01-25T02:18:01;1.70;;;1.33;;
71730;SDS011;65964;43.496;3.710;2024-01-25T02:20:28;3.00;;;1.67;;
71730;SDS011;65964;43.496;3.710;2024-01-25T02:22:54;2.15;;;1.52;;
71730;SDS011;65964;43.496;3.710;2024-01-25T02:25:20;2.65;;;1.48;;
71730;SDS011;65964;43.496;3.710;2024-01-25T02:27:46;4.63;;;1.70;;
71730;SDS011;65964;43.496;3.710;2024-01-25T02:30:12;1.55;;;1.42;;
71730;SDS011;65964;43.496;3.710;2024-01-25T02:32:38;2.25;;;1.60;;
71730;SDS011;65964;43.496;3.710;2024-01-25T02:35:04;2.63;;;1.52;;
71730;SDS011;65964;43.496;3.710;2024-01-25T02:37:30;2.13;;;1.50;;
71730;SDS011;65964;43.496;3.710;2024-01-25T02:39:56;5.97;;;1.95;;
71730;SDS011;65964;43.496;3.710;2024-01-25T02:42:22;1.60;;;1.50;;
71730;SDS011;65964;43.496;3.710;2024-01-25T02:44:48;2.25;;;1.40;;
71730;SDS011;65964;43.496;3.710;2024-01-25T02:47:14;3.25;;;1.52;;
71730;SDS011;65964;43.496;3.710;2024-01-25T02:49:40;2.90;;;1.73;;
71730;SDS011;65964;43.496;3.710;2024-01-25T02:52:06;1.90;;;1.50;;
71730;SDS011;65964;43.496;3.710;2024-01-25T02:54:35;2.03;;;1.67;;
71730;SDS011;65964;43.496;3.710;2024-01-25T02:57:02;2.13;;;1.60;;
71730;SDS011;65964;43.496;3.710;2024-01-25T02:59:28;3.00;;;1.70;;
71730;SDS011;65964;43.496;3.710;2024-01-25T03:01:54;4.25;;;1.80;;
71730;SDS011;65964;43.496;3.710;2024-01-25T03:04:20;2.72;;;1.70;;
71730;SDS011;65964;43.496;3.710;2024-01-25T03:06:46;1.90;;;1.55;;
71730;SDS011;65964;43.496;3.710;2024-01-25T03:09:12;2.65;;;1.63;;
71730;SDS011;65964;43.496;3.710;2024-01-25T03:11:38;3.20;;;1.90;;
71730;SDS011;65964;43.496;3.710;2024-01-25T03:14:04;2.92;;;1.63;;
71730;SDS011;65964;43.496;3.710;2024-01-25T03:16:30;2.35;;;1.60;;
71730;SDS011;65964;43.496;3.710;2024-01-25T03:18:56;3.17;;;1.73;;
71730;SDS011;65964;43.496;3.710;2024-01-25T03:21:22;3.80;;;1.70;;
71730;SDS011;65964;43.496;3.710;2024-01-25T03:23:48;2.35;;;1.75;;
71730;SDS011;65964;43.496;3.710;2024-01-25T03:26:14;5.15;;;1.70;;
71730;SDS011;65964;43.496;3.710;2024-01-25T03:28:40;4.28;;;1.90;;
71730;SDS011;65964;43.496;3.710;2024-01-25T03:31:06;1.77;;;1.45;;
71730;SDS011;65964;43.496;3.710;2024-01-25T03:33:33;5.57;;;2.65;;
71730;SDS011;65964;43.496;3.710;2024-01-25T03:36:05;5.38;;;2.63;;
71730;SDS011;65964;43.496;3.710;2024-01-25T03:38:31;4.75;;;2.45;;
71730;SDS011;65964;43.496;3.710;2024-01-25T03:40:57;5.78;;;2.30;;
71730;SDS011;65964;43.496;3.710;2024-01-25T03:43:26;5.00;;;2.33;;
71730;SDS011;65964;43.496;3.710;2024-01-25T03:45:52;2.60;;;1.70;;
71730;SDS011;65964;43.496;3.710;2024-01-25T03:48:18;2.78;;;1.65;;
71730;SDS011;65964;43.496;3.710;2024-01-25T03:50:45;3.33;;;1.77;;
71730;SDS011;65964;43.496;3.710;2024-01-25T03:53:11;3.13;;;1.90;;
71730;SDS011;65964;43.496;3.710;2024-01-25T03:55:37;6.72;;;2.58;;
71730;SDS011;65964;43.496;3.710;2024-01-25T03:58:03;9.10;;;2.80;;
71730;SDS011;65964;43.496;3.710;2024-01-25T04:00:29;6.13;;;2.15;;
71730;SDS011;65964;43.496;3.710;2024-01-25T04:02:55;4.75;;;2.40;;
71730;SDS011;65964;43.496;3.710;2024-01-25T04:05:21;3.25;;;1.80;;
71730;SDS011;65964;43.496;3.710;2024-01-25T04:07:47;4.63;;;2.22;;
71730;SDS011;65964;43.496;3.710;2024-01-25T04:10:13;4.55;;;1.70;;
71730;SDS011;65964;43.496;3.710;2024-01-25T04:12:39;4.07;;;1.75;;
71730;SDS011;65964;43.496;3.710;2024-01-25T04:15:05;2.70;;;1.50;;
71730;SDS011;65964;43.496;3.710;2024-01-25T04:17:31;7.00;;;2.05;;
71730;SDS011;65964;43.496;3.710;2024-01-25T04:19:57;4.47;;;1.83;;
71730;SDS011;65964;43.496;3.710;2024-01-25T04:22:23;4.70;;;1.88;;
71730;SDS011;65964;43.496;3.710;2024-01-25T04:24:49;5.00;;;1.77;;
71730;SDS011;65964;43.496;3.710;2024-01-25T04:27:15;5.30;;;1.80;;
71730;SDS011;65964;43.496;3.710;2024-01-25T04:29:41;2.22;;;1.77;;
71730;SDS011;65964;43.496;3.710;2024-01-25T04:32:07;2.60;;;1.40;;
71730;SDS011;65964;43.496;3.710;2024-01-25T04:34:33;4.97;;;1.70;;
71730;SDS011;65964;43.496;3.710;2024-01-25T04:36:59;3.75;;;1.92;;
71730;SDS011;65964;43.496;3.710;2024-01-25T04:39:25;5.20;;;1.80;;
71730;SDS011;65964;43.496;3.710;2024-01-25T04:41:52;4.20;;;1.60;;
71730;SDS011;65964;43.496;3.710;2024-01-25T04:44:18;2.78;;;1.60;;
71730;SDS011;65964;43.496;3.710;2024-01-25T04:46:44;7.82;;;2.00;;
71730;SDS011;65964;43.496;3.710;2024-01-25T04:49:10;3.10;;;1.85;;
71730;SDS011;65964;43.496;3.710;2024-01-25T04:51:36;3.95;;;1.60;;
71730;SDS011;65964;43.496;3.710;2024-01-25T04:54:02;3.45;;;2.00;;
71730;SDS011;65964;43.496;3.710;2024-01-25T04:56:28;4.20;;;1.80;;
71730;SDS011;65964;43.496;3.710;2024-01-25T04:58:54;4.10;;;1.75;;
71730;SDS011;65964;43.496;3.710;2024-01-25T05:01:20;3.80;;;1.80;;
71730;SDS011;65964;43.496;3.710;2024-01-25T05:03:46;2.47;;;1.60;;
71730;SDS011;65964;43.496;3.710;2024-01-25T05:06:12;2.75;;;1.77;;
71730;SDS011;65964;43.496;3.710;2024-01-25T05:08:38;3.05;;;1.70;;
71730;SDS011;65964;43.496;3.710;2024-01-25T05:11:07;3.90;;;1.63;;
71730;SDS011;65964;43.496;3.710;2024-01-25T05:13:34;4.10;;;1.90;;
71730;SDS011;65964;43.496;3.710;2024-01-25T05:16:00;4.03;;;1.83;;
71730;SDS011;65964;43.496;3.710;2024-01-25T05:18:26;2.03;;;1.65;;
71730;SDS011;65964;43.496;3.710;2024-01-25T05:20:52;2.75;;;1.45;;
71730;SDS011;65964;43.496;3.710;2024-01-25T05:23:18;3.22;;;1.60;;
71730;SDS011;65964;43.496;3.710;2024-01-25T05:25:44;4.00;;;1.90;;
71730;SDS011;65964;43.496;3.710;2024-01-25T05:28:10;7.55;;;2.38;;
71730;SDS011;65964;43.496;3.710;2024-01-25T05:30:36;3.17;;;1.90;;
71730;SDS011;65964;43.496;3.710;2024-01-25T05:33:02;1.92;;;1.55;;
71730;SDS011;65964;43.496;3.710;2024-01-25T05:35:28;2.38;;;1.70;;
71730;SDS011;65964;43.496;3.710;2024-01-25T05:37:54;6.55;;;2.60;;
71730;SDS011;65964;43.496;3.710;2024-01-25T05:40:20;3.75;;;1.70;;
71730;SDS011;65964;43.496;3.710;2024-01-25T05:42:46;2.65;;;1.77;;
71730;SDS011;65964;43.496;3.710;2024-01-25T05:45:12;5.35;;;2.20;;
71730;SDS011;65964;43.496;3.710;2024-01-25T05:47:38;5.25;;;2.33;;
71730;SDS011;65964;43.496;3.710;2024-01-25T05:50:04;6.82;;;2.70;;
71730;SDS011;65964;43.496;3.710;2024-01-25T05:52:30;3.75;;;1.90;;
71730;SDS011;65964;43.496;3.710;2024-01-25T05:54:57;4.13;;;1.90;;
71730;SDS011;65964;43.496;3.710;2024-01-25T05:57:23;7.53;;;2.10;;
71730;SDS011;65964;43.496;3.710;2024-01-25T05:59:49;5.38;;;1.92;;
71730;SDS011;65964;43.496;3.710;2024-01-25T06:02:15;4.35;;;2.03;;
71730;SDS011;65964;43.496;3.710;2024-01-25T06:04:41;6.70;;;2.03;;
71730;SDS011;65964;43.496;3.710;2024-01-25T06:07:07;3.58;;;1.80;;
71730;SDS011;65964;43.496;3.710;2024-01-25T06:09:33;3.88;;;1.90;;
71730;SDS011;65964;43.496;3.710;2024-01-25T06:11:59;4.53;;;1.98;;
71730;SDS011;65964;43.496;3.710;2024-01-25T06:14:24;10.88;;;3.42;;
71730;SDS011;65964;43.496;3.710;2024-01-25T06:16:50;5.35;;;2.15;;
71730;SDS011;65964;43.496;3.710;2024-01-25T06:19:16;3.83;;;2.03;;
71730;SDS011;65964;43.496;3.710;2024-01-25T06:21:42;6.50;;;2.75;;
71730;SDS011;65964;43.496;3.710;2024-01-25T06:24:09;10.40;;;2.40;;
71730;SDS011;65964;43.496;3.710;2024-01-25T06:26:35;11.73;;;2.90;;
71730;SDS011;65964;43.496;3.710;2024-01-25T06:29:01;7.75;;;3.17;;
71730;SDS011;65964;43.496;3.710;2024-01-25T06:31:27;7.35;;;2.53;;
71730;SDS011;65964;43.496;3.710;2024-01-25T06:33:53;4.43;;;2.28;;
71730;SDS011;65964;43.496;3.710;2024-01-25T06:36:19;3.97;;;1.75;;
71730;SDS011;65964;43.496;3.710;2024-01-25T06:38:45;5.57;;;1.90;;
71730;SDS011;65964;43.496;3.710;2024-01-25T06:41:11;10.95;;;4.82;;
71730;SDS011;65964;43.496;3.710;2024-01-25T06:43:38;11.57;;;3.20;;
71730;SDS011;65964;43.496;3.710;2024-01-25T06:46:05;9.55;;;3.50;;
71730;SDS011;65964;43.496;3.710;2024-01-25T06:48:31;10.88;;;4.20;;
71730;SDS011;65964;43.496;3.710;2024-01-25T06:50:57;11.75;;;6.10;;
71730;SDS011;65964;43.496;3.710;2024-01-25T06:53:24;17.17;;;5.68;;
71730;SDS011;65964;43.496;3.710;2024-01-25T06:55:50;6.50;;;3.40;;
71730;SDS011;65964;43.496;3.710;2024-01-25T06:58:15;10.68;;;3.40;;
71730;SDS011;65964;43.496;3.710;2024-01-25T07:00:41;4.10;;;2.30;;
71730;SDS011;65964;43.496;3.710;2024-01-25T07:03:08;5.55;;;2.13;;
71730;SDS011;65964;43.496;3.710;2024-01-25T07:05:34;6.07;;;2.50;;
71730;SDS011;65964;43.496;3.710;2024-01-25T07:08:01;12.55;;;3.25;;
71730;SDS011;65964;43.496;3.710;2024-01-25T07:10:27;7.10;;;2.90;;
71730;SDS011;65964;43.496;3.710;2024-01-25T07:12:53;9.77;;;2.20;;
71730;SDS011;65964;43.496;3.710;2024-01-25T07:15:19;7.40;;;2.20;;
71730;SDS011;65964;43.496;3.710;2024-01-25T07:17:45;9.68;;;3.78;;
71730;SDS011;65964;43.496;3.710;2024-01-25T07:20:12;10.10;;;4.70;;
71730;SDS011;65964;43.496;3.710;2024-01-25T07:22:38;8.00;;;4.43;;
71730;SDS011;65964;43.496;3.710;2024-01-25T07:25:04;6.97;;;3.30;;
71730;SDS011;65964;43.496;3.710;2024-01-25T07:27:30;4.95;;;2.45;;
71730;SDS011;65964;43.496;3.710;2024-01-25T07:29:56;9.90;;;2.63;;
71730;SDS011;65964;43.496;3.710;2024-01-25T07:32:22;7.30;;;3.45;;
71730;SDS011;65964;43.496;3.710;2024-01-25T07:34:52;6.65;;;2.10;;
71730;SDS011;65964;43.496;3.710;2024-01-25T07:37:19;7.85;;;2.45;;
71730;SDS011;65964;43.496;3.710;2024-01-25T07:39:45;5.45;;;3.20;;
71730;SDS011;65964;43.496;3.710;2024-01-25T07:42:11;7.80;;;2.88;;
71730;SDS011;65964;43.496;3.710;2024-01-25T07:44:37;6.75;;;2.70;;
71730;SDS011;65964;43.496;3.710;2024-01-25T07:47:03;9.10;;;3.33;;
71730;SDS011;65964;43.496;3.710;2024-01-25T07:49:29;10.85;;;3.17;;
71730;SDS011;65964;43.496;3.710;2024-01-25T07:51:56;7.47;;;2.63;;
71730;SDS011;65964;43.496;3.710;2024-01-25T07:54:22;6.68;;;2.50;;
71730;SDS011;65964;43.496;3.710;2024-01-25T07:56:48;9.43;;;3.40;;
71730;SDS011;65964;43.496;3.710;2024-01-25T07:59:14;10.93;;;4.13;;
71730;SDS011;65964;43.496;3.710;2024-01-25T08:01:40;13.73;;;5.20;;
71730;SDS011;65964;43.496;3.710;2024-01-25T08:04:06;23.13;;;6.00;;
71730;SDS011;65964;43.496;3.710;2024-01-25T08:06:32;13.27;;;4.07;;
71730;SDS011;65964;43.496;3.710;2024-01-25T08:08:58;10.27;;;3.40;;
71730;SDS011;65964;43.496;3.710;2024-01-25T08:11:24;11.80;;;3.70;;
71730;SDS011;65964;43.496;3.710;2024-01-25T08:13:50;7.68;;;3.25;;
71730;SDS011;65964;43.496;3.710;2024-01-25T08:16:17;14.65;;;4.75;;
71730;SDS011;65964;43.496;3.710;2024-01-25T08:18:45;11.20;;;4.43;;
71730;SDS011;65964;43.496;3.710;2024-01-25T08:21:11;12.57;;;4.22;;
71730;SDS011;65964;43.496;3.710;2024-01-25T08:23:37;14.82;;;5.07;;
71730;SDS011;65964;43.496;3.710;2024-01-25T08:26:04;12.40;;;5.10;;
71730;SDS011;65964;43.496;3.710;2024-01-25T08:28:30;13.02;;;4.57;;
71730;SDS011;65964;43.496;3.710;2024-01-25T08:30:56;13.30;;;5.43;;
71730;SDS011;65964;43.496;3.710;2024-01-25T08:33:22;10.50;;;4.78;;
71730;SDS011;65964;43.496;3.710;2024-01-25T08:35:50;19.63;;;5.25;;
71730;SDS011;65964;43.496;3.710;2024-01-25T08:38:16;15.35;;;5.00;;
71730;SDS011;65964;43.496;3.710;2024-01-25T08:40:42;19.48;;;5.45;;
71730;SDS011;65964;43.496;3.710;2024-01-25T08:43:08;20.33;;;6.72;;
71730;SDS011;65964;43.496;3.710;2024-01-25T08:45:34;26.20;;;7.13;;
71730;SDS011;65964;43.496;3.710;2024-01-25T08:48:02;22.30;;;6.05;;
71730;SDS011;65964;43.496;3.710;2024-01-25T08:50:28;21.05;;;5.72;;
71730;SDS011;65964;43.496;3.710;2024-01-25T08:52:54;21.63;;;6.10;;
71730;SDS011;65964;43.496;3.710;2024-01-25T08:55:20;16.75;;;5.93;;
71730;SDS011;65964;43.496;3.710;2024-01-25T08:57:47;17.75;;;6.50;;
71730;SDS011;65964;43.496;3.710;2024-01-25T09:00:13;21.63;;;6.80;;
71730;SDS011;65964;43.496;3.710;2024-01-25T09:02:40;20.08;;;6.40;;
71730;SDS011;65964;43.496;3.710;2024-01-25T09:05:07;22.27;;;6.38;;
71730;SDS011;65964;43.496;3.710;2024-01-25T09:07:33;16.48;;;5.30;;
71730;SDS011;65964;43.496;3.710;2024-01-25T09:10:00;13.43;;;4.40;;
71730;SDS011;65964;43.496;3.710;2024-01-25T09:12:26;18.20;;;4.93;;
71730;SDS011;65964;43.496;3.710;2024-01-25T09:14:52;18.70;;;4.88;;
71730;SDS011;65964;43.496;3.710;2024-01-25T09:17:18;14.20;;;4.20;;
71730;SDS011;65964;43.496;3.710;2024-01-25T09:19:50;50.30;;;6.55;;
71730;SDS011;65964;43.496;3.710;2024-01-25T09:22:16;7.40;;;3.13;;
71730;SDS011;65964;43.496;3.710;2024-01-25T09:24:44;18.95;;;4.07;;
71730;SDS011;65964;43.496;3.710;2024-01-25T09:27:10;17.58;;;3.72;;
71730;SDS011;65964;43.496;3.710;2024-01-25T09:29:37;13.10;;;3.28;;
71730;SDS011;65964;43.496;3.710;2024-01-25T09:32:03;6.22;;;2.10;;
71730;SDS011;65964;43.496;3.710;2024-01-25T09:34:29;4.70;;;1.90;;
71730;SDS011;65964;43.496;3.710;2024-01-25T09:36:55;9.55;;;2.50;;
71730;SDS011;65964;43.496;3.710;2024-01-25T09:39:21;12.88;;;3.80;;
71730;SDS011;65964;43.496;3.710;2024-01-25T09:41:48;7.85;;;2.70;;
71730;SDS011;65964;43.496;3.710;2024-01-25T09:44:14;8.63;;;2.38;;
71730;SDS011;65964;43.496;3.710;2024-01-25T09:46:42;5.95;;;1.90;;
71730;SDS011;65964;43.496;3.710;2024-01-25T09:49:08;6.00;;;2.30;;
71730;SDS011;65964;43.496;3.710;2024-01-25T09:51:38;7.95;;;2.10;;
71730;SDS011;65964;43.496;3.710;2024-01-25T09:54:07;8.60;;;2.28;;
71730;SDS011;65964;43.496;3.710;2024-01-25T09:56:34;4.68;;;1.90;;
71730;SDS011;65964;43.496;3.710;2024-01-25T09:59:00;10.43;;;2.67;;
71730;SDS011;65964;43.496;3.710;2024-01-25T10:01:26;10.70;;;3.08;;
71730;SDS011;65964;43.496;3.710;2024-01-25T10:03:53;10.10;;;2.88;;
71730;SDS011;65964;43.496;3.710;2024-01-25T10:06:21;7.55;;;2.22;;
71730;SDS011;65964;43.496;3.710;2024-01-25T10:08:47;10.93;;;2.78;;
71730;SDS011;65964;43.496;3.710;2024-01-25T10:11:13;3.88;;;2.00;;
71730;SDS011;65964;43.496;3.710;2024-01-25T10:13:40;3.88;;;2.30;;
71730;SDS011;65964;43.496;3.710;2024-01-25T10:16:07;9.20;;;2.60;;
71730;SDS011;65964;43.496;3.710;2024-01-25T10:18:33;8.75;;;2.80;;
71730;SDS011;65964;43.496;3.710;2024-01-25T10:20:59;4.38;;;2.10;;
71730;SDS011;65964;43.496;3.710;2024-01-25T10:23:25;7.38;;;2.20;;
71730;SDS011;65964;43.496;3.710;2024-01-25T10:25:51;6.25;;;2.35;;
71730;SDS011;65964;43.496;3.710;2024-01-25T10:28:17;7.13;;;2.30;;
71730;SDS011;65964;43.496;3.710;2024-01-25T10:30:43;9.23;;;2.88;;
71730;SDS011;65964;43.496;3.710;2024-01-25T10:33:10;9.75;;;3.22;;
71730;SDS011;65964;43.496;3.710;2024-01-25T10:35:37;4.07;;;1.67;;
71730;SDS011;65964;43.496;3.710;2024-01-25T10:38:03;8.20;;;2.88;;
71730;SDS011;65964;43.496;3.710;2024-01-25T10:40:29;10.30;;;3.20;;
71730;SDS011;65964;43.496;3.710;2024-01-25T10:42:55;13.27;;;3.40;;
71730;SDS011;65964;43.496;3.710;2024-01-25T10:45:21;7.50;;;2.53;;
71730;SDS011;65964;43.496;3.710;2024-01-25T10:47:48;4.72;;;2.10;;
71730;SDS011;65964;43.496;3.710;2024-01-25T10:50:14;6.38;;;2.30;;
71730;SDS011;65964;43.496;3.710;2024-01-25T10:52:40;4.63;;;2.20;;
71730;SDS011;65964;43.496;3.710;2024-01-25T10:55:07;4.65;;;2.10;;
71730;SDS011;65964;43.496;3.710;2024-01-25T10:57:44;5.38;;;2.38;;
71730;SDS011;65964;43.496;3.710;2024-01-25T11:00:13;7.38;;;2.17;;
71730;SDS011;65964;43.496;3.710;2024-01-25T11:02:40;7.07;;;2.63;;
71730;SDS011;65964;43.496;3.710;2024-01-25T11:05:10;5.80;;;2.60;;
71730;SDS011;65964;43.496;3.710;2024-01-25T11:07:49;5.85;;;2.30;;
71730;SDS011;65964;43.496;3.710;2024-01-25T11:10:17;5.30;;;2.38;;
71730;SDS011;65964;43.496;3.710;2024-01-25T11:13:16;5.25;;;2.50;;
71730;SDS011;65964;43.496;3.710;2024-01-25T11:15:36;4.68;;;1.90;;
71730;SDS011;65964;43.496;3.710;2024-01-25T11:18:03;3.20;;;1.80;;
71730;SDS011;65964;43.496;3.710;2024-01-25T11:20:31;3.08;;;1.80;;
71730;SDS011;65964;43.496;3.710;2024-01-25T11:25:26;4.13;;;1.90;;
71730;SDS011;65964;43.496;3.710;2024-01-25T11:27:53;3.75;;;1.70;;
71730;SDS011;65964;43.496;3.710;2024-01-25T11:30:19;4.85;;;2.15;;
71730;SDS011;65964;43.496;3.710;2024-01-25T11:32:46;3.10;;;1.83;;
71730;SDS011;65964;43.496;3.710;2024-01-25T11:35:15;4.80;;;2.30;;
71730;SDS011;65964;43.496;3.710;2024-01-25T11:37:50;4.10;;;2.00;;
71730;SDS011;65964;43.496;3.710;2024-01-25T11:40:20;6.88;;;2.00;;
71730;SDS011;65964;43.496;3.710;2024-01-25T11:42:49;3.00;;;1.70;;
71730;SDS011;65964;43.496;3.710;2024-01-25T11:45:16;5.28;;;2.10;;
71730;SDS011;65964;43.496;3.710;2024-01-25T11:47:42;4.78;;;1.90;;
71730;SDS011;65964;43.496;3.710;2024-01-25T11:50:09;6.72;;;2.00;;
71730;SDS011;65964;43.496;3.710;2024-01-25T11:52:36;6.55;;;2.47;;
71730;SDS011;65964;43.496;3.710;2024-01-25T11:55:02;4.32;;;2.30;;
71730;SDS011;65964;43.496;3.710;2024-01-25T11:57:32;6.40;;;2.20;;
71730;SDS011;65964;43.496;3.710;2024-01-25T12:00:00;7.30;;;2.42;;
71730;SDS011;65964;43.496;3.710;2024-01-25T12:02:26;6.22;;;2.33;;
71730;SDS011;65964;43.496;3.710;2024-01-25T12:04:52;4.63;;;2.28;;
71730;SDS011;65964;43.496;3.710;2024-01-25T12:07:20;9.65;;;2.33;;
71730;SDS011;65964;43.496;3.710;2024-01-25T12:10:03;10.75;;;2.95;;
71730;SDS011;65964;43.496;3.710;2024-01-25T12:12:29;10.40;;;2.55;;
71730;SDS011;65964;43.496;3.710;2024-01-25T12:14:59;7.60;;;2.42;;
71730;SDS011;65964;43.496;3.710;2024-01-25T12:17:27;3.95;;;2.00;;
71730;SDS011;65964;43.496;3.710;2024-01-25T12:19:54;3.28;;;2.10;;
71730;SDS011;65964;43.496;3.710;2024-01-25T12:22:21;7.10;;;2.47;;
71730;SDS011;65964;43.496;3.710;2024-01-25T12:24:47;9.95;;;2.47;;
71730;SDS011;65964;43.496;3.710;2024-01-25T12:27:17;5.90;;;2.50;;
71730;SDS011;65964;43.496;3.710;2024-01-25T12:29:43;8.60;;;2.35;;
71730;SDS011;65964;43.496;3.710;2024-01-25T12:32:09;4.65;;;1.88;;
71730;SDS011;65964;43.496;3.710;2024-01-25T12:34:35;8.32;;;2.95;;
71730;SDS011;65964;43.496;3.710;2024-01-25T12:37:02;17.17;;;2.90;;
71730;SDS011;65964;43.496;3.710;2024-01-25T12:39:29;9.68;;;2.58;;
71730;SDS011;65964;43.496;3.710;2024-01-25T12:41:55;7.70;;;2.50;;
71730;SDS011;65964;43.496;3.710;2024-01-25T12:44:21;8.43;;;2.28;;
71730;SDS011;65964;43.496;3.710;2024-01-25T12:46:47;9.85;;;2.78;;
71730;SDS011;65964;43.496;3.710;2024-01-25T12:49:13;6.40;;;2.30;;
71730;SDS011;65964;43.496;3.710;2024-01-25T12:51:39;7.60;;;2.20;;
71730;SDS011;65964;43.496;3.710;2024-01-25T12:54:05;6.50;;;2.10;;
71730;SDS011;65964;43.496;3.710;2024-01-25T12:56:32;12.65;;;2.80;;
71730;SDS011;65964;43.496;3.710;2024-01-25T12:58:58;7.53;;;2.55;;
71730;SDS011;65964;43.496;3.710;2024-01-25T13:01:24;9.75;;;2.50;;
71730;SDS011;65964;43.496;3.710;2024-01-25T13:03:50;6.90;;;2.38;;
71730;SDS011;65964;43.496;3.710;2024-01-25T13:06:16;11.40;;;2.97;;
71730;SDS011;65964;43.496;3.710;2024-01-25T13:08:42;5.38;;;2.03;;
71730;SDS011;65964;43.496;3.710;2024-01-25T13:11:08;6.65;;;2.00;;
71730;SDS011;65964;43.496;3.710;2024-01-25T13:13:34;10.68;;;3.03;;
71730;SDS011;65964;43.496;3.710;2024-01-25T13:16:00;7.70;;;2.15;;
71730;SDS011;65964;43.496;3.710;2024-01-25T13:18:26;6.30;;;1.77;;
71730;SDS011;65964;43.496;3.710;2024-01-25T13:20:52;5.13;;;2.03;;
71730;SDS011;65964;43.496;3.710;2024-01-25T13:23:18;5.00;;;2.20;;
71730;SDS011;65964;43.496;3.710;2024-01-25T13:25:44;4.78;;;1.95;;
71730;SDS011;65964;43.496;3.710;2024-01-25T13:28:10;5.22;;;1.77;;
71730;SDS011;65964;43.496;3.710;2024-01-25T13:30:36;5.57;;;2.10;;
71730;SDS011;65964;43.496;3.710;2024-01-25T13:33:02;6.72;;;2.53;;
71730;SDS011;65964;43.496;3.710;2024-01-25T13:35:28;6.75;;;2.42;;
71730;SDS011;65964;43.496;3.710;2024-01-25T13:37:54;6.32;;;2.20;;
71730;SDS011;65964;43.496;3.710;2024-01-25T13:40:25;4.95;;;2.38;;
71730;SDS011;65964;43.496;3.710;2024-01-25T13:42:51;5.53;;;2.38;;
71730;SDS011;65964;43.496;3.710;2024-01-25T13:45:17;5.05;;;1.92;;
71730;SDS011;65964;43.496;3.710;2024-01-25T13:47:43;7.07;;;2.30;;
71730;SDS011;65964;43.496;3.710;2024-01-25T13:50:09;5.82;;;2.20;;
71730;SDS011;65964;43.496;3.710;2024-01-25T13:52:35;5.68;;;2.20;;
71730;SDS011;65964;43.496;3.710;2024-01-25T13:55:01;8.00;;;2.45;;
71730;SDS011;65964;43.496;3.710;2024-01-25T13:57:27;3.42;;;2.03;;
71730;SDS011;65964;43.496;3.710;2024-01-25T13:59:53;5.60;;;2.08;;
71730;SDS011;65964;43.496;3.710;2024-01-25T14:02:19;8.35;;;2.67;;
71730;SDS011;65964;43.496;3.710;2024-01-25T14:04:45;4.18;;;2.03;;
71730;SDS011;65964;43.496;3.710;2024-01-25T14:07:13;7.72;;;2.40;;
71730;SDS011;65964;43.496;3.710;2024-01-25T14:09:39;9.73;;;2.67;;
71730;SDS011;65964;43.496;3.710;2024-01-25T14:12:06;5.38;;;2.30;;
71730;SDS011;65964;43.496;3.710;2024-01-25T14:14:32;8.18;;;2.50;;
71730;SDS011;65964;43.496;3.710;2024-01-25T14:16:58;6.82;;;2.30;;
71730;SDS011;65964;43.496;3.710;2024-01-25T14:19:24;12.00;;;2.90;;
71730;SDS011;65964;43.496;3.710;2024-01-25T14:21:50;6.65;;;2.53;;
71730;SDS011;65964;43.496;3.710;2024-01-25T14:24:16;10.23;;;2.70;;
71730;SDS011;65964;43.496;3.710;2024-01-25T14:26:43;5.53;;;2.60;;
71730;SDS011;65964;43.496;3.710;2024-01-25T14:29:10;5.68;;;1.90;;
71730;SDS011;65964;43.496;3.710;2024-01-25T14:31:36;5.00;;;2.10;;
71730;SDS011;65964;43.496;3.710;2024-01-25T14:34:02;6.50;;;2.20;;
71730;SDS011;65964;43.496;3.710;2024-01-25T14:36:28;5.80;;;2.15;;
71730;SDS011;65964;43.496;3.710;2024-01-25T14:38:54;9.80;;;2.55;;
71730;SDS011;65964;43.496;3.710;2024-01-25T14:41:20;7.82;;;2.35;;
71730;SDS011;65964;43.496;3.710;2024-01-25T14:43:46;5.00;;;2.40;;